createdAt,value
2022-11-06T00:00:26.574Z,17.23
2022-11-06T00:02:53.630Z,17.70
2022-11-06T00:05:39.465Z,15.83
2022-11-06T00:08:06.469Z,15.83
2022-11-06T00:10:33.453Z,20.20
2022-11-06T00:13:00.966Z,17.17
2022-11-06T00:15:28.066Z,16.23
2022-11-06T00:17:55.067Z,16.60
2022-11-06T00:20:22.302Z,15.73
2022-11-06T00:22:49.369Z,17.90
2022-11-06T00:25:16.513Z,19.23
2022-11-06T00:27:43.770Z,15.47
2022-11-06T00:30:11.577Z,19.27
2022-11-06T00:32:39.419Z,19.83
2022-11-06T00:35:07.247Z,17.93
2022-11-06T00:37:34.800Z,17.87
2022-11-06T00:40:01.844Z,21.43
2022-11-06T00:42:28.885Z,17.40
2022-11-06T00:44:55.933Z,17.27
2022-11-06T00:47:23.042Z,16.60
2022-11-06T00:49:50.010Z,19.17
2022-11-06T00:52:16.992Z,17.43
2022-11-06T00:54:43.984Z,17.73
2022-11-06T00:57:11.144Z,15.73
2022-11-06T00:59:38.207Z,16.67
2022-11-06T01:02:05.313Z,16.90
2022-11-06T01:04:32.412Z,21.87
2022-11-06T01:06:59.615Z,17.77
2022-11-06T01:09:27.427Z,18.33
2022-11-06T01:12:13.366Z,22.13
2022-11-06T01:14:41.662Z,17.20
2022-11-06T01:17:08.657Z,19.20
2022-11-06T01:19:35.631Z,18.57
2022-11-06T01:22:02.805Z,19.95
2022-11-06T01:24:30.412Z,24.70
2022-11-06T01:27:26.026Z,23.03
2022-11-06T01:29:44.993Z,19.43
2022-11-06T01:32:12.363Z,20.03
2022-11-06T01:34:39.538Z,21.33
2022-11-06T01:37:09.175Z,21.27
2022-11-06T01:39:40.153Z,19.43
2022-11-06T01:42:07.141Z,17.20
2022-11-06T01:44:34.088Z,19.90
2022-11-06T01:47:01.912Z,21.33
2022-11-06T01:49:30.209Z,17.80
2022-11-06T01:51:59.469Z,24.00
2022-11-06T01:54:28.354Z,21.37
2022-11-06T01:56:56.738Z,22.00
2022-11-06T01:59:25.750Z,18.77
2022-11-06T02:01:52.882Z,17.63
2022-11-06T02:04:24.939Z,17.67
2022-11-06T02:06:52.014Z,23.57
2022-11-06T02:09:19.455Z,19.97
2022-11-06T02:11:51.004Z,19.33
2022-11-06T02:14:18.002Z,27.50
2022-11-06T02:16:44.982Z,27.13
2022-11-06T02:19:39.897Z,23.77
2022-11-06T02:22:06.967Z,27.27
2022-11-06T02:24:48.662Z,25.47
2022-11-06T02:27:17.861Z,27.60
2022-11-06T02:29:54.025Z,23.07
2022-11-06T02:32:23.699Z,23.17
2022-11-06T02:34:52.223Z,30.15
2022-11-06T02:37:21.281Z,25.30
2022-11-06T02:39:49.605Z,30.07
2022-11-06T02:42:18.894Z,26.90
2022-11-06T02:44:47.663Z,25.30
2022-11-06T02:47:15.699Z,27.00
2022-11-06T02:49:48.277Z,26.70
2022-11-06T02:52:20.288Z,30.13
2022-11-06T02:54:51.458Z,28.77
2022-11-06T02:57:19.930Z,30.60
2022-11-06T03:00:04.453Z,26.77
2022-11-06T03:02:34.034Z,30.80
2022-11-06T03:05:14.293Z,29.03
2022-11-06T03:07:41.295Z,28.90
2022-11-06T03:10:08.950Z,31.70
2022-11-06T03:12:54.882Z,31.97
2022-11-06T03:15:21.886Z,34.20
2022-11-06T03:17:57.400Z,30.77
2022-11-06T03:20:30.383Z,29.47
2022-11-06T03:23:07.824Z,28.37
2022-11-06T03:25:44.040Z,28.50
2022-11-06T03:28:27.610Z,31.10
2022-11-06T03:31:00.001Z,31.70
2022-11-06T03:33:33.525Z,34.30
2022-11-06T03:36:03.746Z,30.53
2022-11-06T03:38:32.254Z,28.20
2022-11-06T03:41:01.678Z,28.93
2022-11-06T03:43:30.900Z,27.17
2022-11-06T03:45:58.747Z,32.07
2022-11-06T03:48:34.765Z,28.13
2022-11-06T03:51:06.061Z,31.13
2022-11-06T03:53:37.576Z,32.67
2022-11-06T03:56:07.038Z,31.50
2022-11-06T03:58:37.662Z,24.83
2022-11-06T04:01:06.302Z,29.70
2022-11-06T04:03:36.068Z,26.67
2022-11-06T04:06:13.084Z,28.07
2022-11-06T04:08:58.833Z,29.93
2022-11-06T04:11:45.720Z,27.03
2022-11-06T04:14:14.841Z,26.03
2022-11-06T04:16:48.666Z,25.57
2022-11-06T04:19:17.170Z,31.37
2022-11-06T04:21:50.078Z,25.90
2022-11-06T04:24:43.373Z,28.10
2022-11-06T04:27:29.037Z,30.33
2022-11-06T04:29:59.164Z,27.63
2022-11-06T04:32:32.158Z,25.73
2022-11-06T04:35:16.142Z,30.63
2022-11-06T04:38:01.974Z,22.83
2022-11-06T04:40:35.126Z,26.50
2022-11-06T04:43:20.714Z,26.17
2022-11-06T04:45:49.448Z,26.47
2022-11-06T04:48:18.141Z,23.00
2022-11-06T04:50:50.546Z,22.43
2022-11-06T04:53:18.447Z,23.27
2022-11-06T04:55:46.511Z,22.70
2022-11-06T04:58:13.895Z,25.47
2022-11-06T05:00:42.839Z,23.30
2022-11-06T05:03:09.872Z,31.53
2022-11-06T05:05:36.860Z,25.87
2022-11-06T05:08:03.909Z,23.80
2022-11-06T05:10:30.876Z,26.23
2022-11-06T05:12:57.869Z,24.17
2022-11-06T05:15:24.849Z,27.93
2022-11-06T05:17:51.818Z,24.80
2022-11-06T05:20:18.810Z,22.93
2022-11-06T05:22:57.856Z,22.77
2022-11-06T05:25:29.378Z,20.30
2022-11-06T05:27:56.804Z,23.70
2022-11-06T05:30:24.451Z,23.07
2022-11-06T05:32:51.600Z,21.30
2022-11-06T05:35:19.165Z,21.17
2022-11-06T05:37:46.251Z,22.97
2022-11-06T05:40:13.496Z,23.10
2022-11-06T05:42:41.126Z,24.77
2022-11-06T05:45:08.446Z,27.50
2022-11-06T05:47:35.452Z,24.57
2022-11-06T05:50:02.945Z,28.63
2022-11-06T05:52:29.943Z,23.43
2022-11-06T05:54:56.921Z,29.80
2022-11-06T05:57:23.896Z,21.67
2022-11-06T05:59:50.893Z,22.10
2022-11-06T06:02:18.005Z,20.20
2022-11-06T06:04:45.025Z,20.20
2022-11-06T06:07:12.009Z,20.73
2022-11-06T06:09:39.070Z,20.03
2022-11-06T06:12:06.220Z,22.40
2022-11-06T06:14:33.182Z,23.90
2022-11-06T06:17:00.150Z,22.10
2022-11-06T06:19:27.149Z,20.60
2022-11-06T06:21:54.105Z,19.53
2022-11-06T06:24:21.092Z,21.10
2022-11-06T06:26:48.072Z,16.47
2022-11-06T06:29:15.229Z,19.27
2022-11-06T06:31:42.238Z,20.77
2022-11-06T06:34:09.225Z,17.73
2022-11-06T06:36:36.207Z,19.67
2022-11-06T06:39:03.276Z,22.50
2022-11-06T06:41:30.287Z,17.83
2022-11-06T06:43:57.266Z,18.63
2022-11-06T06:46:24.310Z,21.47
2022-11-06T06:48:51.429Z,19.57
2022-11-06T06:51:23.510Z,21.63
2022-11-06T06:53:50.854Z,20.70
2022-11-06T06:56:17.860Z,20.67
2022-11-06T06:58:44.833Z,21.60
2022-11-06T07:01:11.988Z,21.97
2022-11-06T07:03:39.274Z,24.00
2022-11-06T07:06:06.801Z,20.37
2022-11-06T07:08:34.092Z,22.73
2022-11-06T07:11:01.899Z,21.63
2022-11-06T07:13:35.197Z,21.67
2022-11-06T07:16:03.809Z,19.73
2022-11-06T07:18:30.862Z,19.67
2022-11-06T07:20:57.892Z,18.00
2022-11-06T07:23:24.905Z,18.87
2022-11-06T07:25:55.060Z,19.87
2022-11-06T07:28:22.497Z,21.23
2022-11-06T07:30:49.526Z,17.47
2022-11-06T07:33:16.506Z,17.47
2022-11-06T07:35:43.529Z,17.87
2022-11-06T07:38:10.765Z,18.57
2022-11-06T07:40:38.045Z,17.67
2022-11-06T07:43:08.873Z,19.17
2022-11-06T07:45:36.097Z,20.63
2022-11-06T07:48:03.477Z,19.33
2022-11-06T07:50:30.594Z,19.30
2022-11-06T07:52:58.101Z,18.97
2022-11-06T07:55:25.069Z,18.23
2022-11-06T07:57:52.075Z,20.00
2022-11-06T08:00:19.148Z,19.33
2022-11-06T08:02:46.152Z,17.73
2022-11-06T08:05:13.182Z,19.63
2022-11-06T08:07:40.688Z,19.47
2022-11-06T08:10:07.814Z,19.37
2022-11-06T08:12:34.789Z,19.10
2022-11-06T08:15:01.774Z,17.17
2022-11-06T08:17:30.070Z,17.88
2022-11-06T08:19:57.070Z,17.70
2022-11-06T08:22:24.090Z,17.53
2022-11-06T08:24:51.150Z,16.70
2022-11-06T08:27:18.237Z,17.47
2022-11-06T08:29:45.290Z,14.63
2022-11-06T08:32:12.256Z,14.53
2022-11-06T08:34:39.269Z,15.30
2022-11-06T08:37:06.330Z,15.47
2022-11-06T08:39:33.378Z,16.17
2022-11-06T08:42:02.108Z,15.27
2022-11-06T08:44:29.066Z,14.90
2022-11-06T08:46:56.106Z,15.33
2022-11-06T08:49:23.074Z,16.43
2022-11-06T08:51:50.059Z,15.63
2022-11-06T08:54:17.047Z,16.10
2022-11-06T08:56:44.067Z,16.60
2022-11-06T08:59:11.064Z,15.60
2022-11-06T09:01:38.371Z,14.23
2022-11-06T09:04:06.013Z,15.33
2022-11-06T09:06:33.072Z,13.60
2022-11-06T09:09:00.251Z,13.10
2022-11-06T09:11:27.358Z,12.57
2022-11-06T09:13:54.466Z,12.60
2022-11-06T09:16:21.493Z,12.37
2022-11-06T09:18:48.500Z,11.37
2022-11-06T09:21:15.606Z,10.63
2022-11-06T09:23:42.246Z,10.03
2022-11-06T09:26:11.440Z,11.10
2022-11-06T09:28:38.404Z,13.27
2022-11-06T09:31:05.442Z,13.27
2022-11-06T09:33:32.437Z,11.57
2022-11-06T09:35:59.616Z,10.20
2022-11-06T09:38:26.626Z,10.80
2022-11-06T09:40:56.002Z,10.00
2022-11-06T09:44:03.500Z,9.60
2022-11-06T09:46:22.506Z,9.40
2022-11-06T09:48:55.619Z,8.77
2022-11-06T09:51:28.973Z,9.73
2022-11-06T09:54:06.418Z,11.60
2022-11-06T09:56:35.291Z,8.17
2022-11-06T09:59:04.729Z,9.63
2022-11-06T10:01:36.628Z,9.23
2022-11-06T10:04:05.549Z,8.17
2022-11-06T10:06:33.400Z,8.20
2022-11-06T10:09:01.927Z,8.40
2022-11-06T10:11:41.094Z,8.20
2022-11-06T10:14:16.833Z,8.20
2022-11-06T10:16:43.786Z,8.23
2022-11-06T10:19:29.265Z,7.20
2022-11-06T10:22:02.653Z,7.40
2022-11-06T10:24:41.881Z,7.57
2022-11-06T10:27:18.748Z,7.90
2022-11-06T10:29:53.909Z,6.00
2022-11-06T10:32:26.786Z,7.13
2022-11-06T10:34:58.125Z,6.30
2022-11-06T10:37:30.739Z,6.47
2022-11-06T10:39:58.596Z,6.53
2022-11-06T10:42:35.194Z,6.70
2022-11-06T10:45:06.640Z,6.20
2022-11-06T10:47:36.553Z,6.25
2022-11-06T10:50:05.423Z,6.40
2022-11-06T10:52:32.437Z,5.77
2022-11-06T10:55:11.872Z,5.97
2022-11-06T10:57:56.861Z,7.53
2022-11-06T11:00:23.921Z,6.50
2022-11-06T11:02:56.131Z,7.90
2022-11-06T11:05:25.131Z,6.53
2022-11-06T11:07:52.297Z,7.10
2022-11-06T11:10:32.964Z,8.27
2022-11-06T11:13:05.534Z,8.00
2022-11-06T11:15:53.506Z,7.20
2022-11-06T11:18:24.058Z,8.70
2022-11-06T11:20:52.166Z,7.60
2022-11-06T11:23:23.538Z,9.77
2022-11-06T11:25:54.647Z,7.50
2022-11-06T11:28:32.469Z,8.13
2022-11-06T11:31:02.237Z,8.73
2022-11-06T11:33:29.843Z,7.37
2022-11-06T11:35:57.013Z,7.10
2022-11-06T11:38:25.810Z,7.20
2022-11-06T11:40:53.066Z,7.27
2022-11-06T11:43:20.018Z,8.97
2022-11-06T11:46:05.314Z,7.67
2022-11-06T11:49:03.182Z,9.67
2022-11-06T11:51:43.191Z,7.03
2022-11-06T11:54:10.138Z,7.10
2022-11-06T11:57:03.589Z,5.97
2022-11-06T11:59:33.507Z,5.13
2022-11-06T12:02:12.217Z,5.40
2022-11-06T12:04:41.674Z,4.83
2022-11-06T12:07:15.562Z,5.20
2022-11-06T12:09:43.853Z,6.37
2022-11-06T12:12:31.267Z,5.10
2022-11-06T12:15:17.899Z,4.60
2022-11-06T12:17:45.210Z,5.20
2022-11-06T12:20:15.394Z,5.20
2022-11-06T12:22:44.777Z,5.10
2022-11-06T12:25:16.222Z,5.03
2022-11-06T12:27:47.284Z,5.40
2022-11-06T12:30:21.381Z,5.90
2022-11-06T12:33:11.954Z,5.20
2022-11-06T12:35:42.066Z,5.17
2022-11-06T12:38:18.298Z,5.07
2022-11-06T12:40:50.769Z,4.93
2022-11-06T12:43:24.032Z,5.55
2022-11-06T12:46:09.846Z,5.70
2022-11-06T12:48:55.763Z,5.47
2022-11-06T12:51:22.822Z,4.80
2022-11-06T12:53:57.288Z,4.50
2022-11-06T12:56:30.417Z,4.93
2022-11-06T12:59:01.759Z,4.70
2022-11-06T13:01:47.411Z,4.63
2022-11-06T13:04:41.361Z,5.33
2022-11-06T13:07:27.725Z,4.90
2022-11-06T13:09:54.676Z,5.60
2022-11-06T13:12:27.468Z,4.43
2022-11-06T13:15:03.405Z,5.20
2022-11-06T13:17:41.617Z,4.60
2022-11-06T13:20:25.161Z,5.47
2022-11-06T13:22:54.994Z,4.70
2022-11-06T13:25:32.944Z,4.53
2022-11-06T13:28:09.488Z,5.83
2022-11-06T13:30:37.761Z,5.23
2022-11-06T13:33:27.929Z,5.40
2022-11-06T13:35:55.333Z,4.90
2022-11-06T13:38:35.407Z,4.67
2022-11-06T13:41:22.402Z,5.43
2022-11-06T13:43:51.295Z,4.87
2022-11-06T13:46:18.245Z,6.07
2022-11-06T13:48:51.491Z,5.03
2022-11-06T13:51:39.770Z,5.67
2022-11-06T13:54:26.983Z,5.20
2022-11-06T13:56:56.952Z,5.30
2022-11-06T13:59:43.398Z,5.00
2022-11-06T14:02:29.226Z,4.43
2022-11-06T14:05:14.870Z,4.47
2022-11-06T14:07:42.653Z,4.50
2022-11-06T14:10:20.949Z,3.80
2022-11-06T14:12:49.316Z,4.63
2022-11-06T14:15:37.689Z,4.67
2022-11-06T14:18:05.109Z,4.77
2022-11-06T14:20:35.368Z,5.07
2022-11-06T14:23:21.370Z,6.30
2022-11-06T14:25:58.924Z,4.90
2022-11-06T14:28:33.419Z,5.10
2022-11-06T14:31:21.476Z,4.77
2022-11-06T14:34:07.819Z,5.60
2022-11-06T14:36:35.825Z,4.93
2022-11-06T14:39:03.889Z,5.17
2022-11-06T14:41:38.259Z,5.30
2022-11-06T14:44:10.165Z,5.20
2022-11-06T14:46:37.160Z,5.57
2022-11-06T14:49:10.049Z,5.73
2022-11-06T14:51:37.021Z,5.33
2022-11-06T14:54:17.490Z,5.50
2022-11-06T14:56:44.508Z,5.27
2022-11-06T14:59:20.701Z,5.50
2022-11-06T15:02:17.351Z,5.40
2022-11-06T15:04:46.650Z,4.93
2022-11-06T15:07:50.923Z,4.63
2022-11-06T15:10:33.012Z,5.33
2022-11-06T15:13:11.036Z,4.37
2022-11-06T15:15:41.520Z,4.80
2022-11-06T15:18:19.034Z,4.27
2022-11-06T15:20:51.831Z,4.65
2022-11-06T15:23:29.740Z,4.97
2022-11-06T15:26:01.615Z,3.60
2022-11-06T15:28:32.833Z,4.00
2022-11-06T15:31:02.613Z,3.90
2022-11-06T15:33:34.820Z,3.40
2022-11-06T15:36:11.977Z,3.47
2022-11-06T15:38:39.997Z,4.07
2022-11-06T15:41:08.507Z,3.60
2022-11-06T15:43:37.310Z,4.40
2022-11-06T15:46:13.220Z,4.77
2022-11-06T15:48:40.192Z,4.30
2022-11-06T15:51:42.429Z,4.10
2022-11-06T15:54:14.379Z,4.67
2022-11-06T15:56:41.641Z,4.37
2022-11-06T15:59:10.206Z,4.70
2022-11-06T16:01:37.373Z,4.97
2022-11-06T16:04:09.464Z,5.07
2022-11-06T16:06:40.261Z,5.60
2022-11-06T16:09:10.098Z,5.13
2022-11-06T16:11:37.137Z,5.17
2022-11-06T16:14:04.193Z,4.90
2022-11-06T16:16:34.621Z,4.77
2022-11-06T16:19:02.207Z,8.73
2022-11-06T16:21:31.243Z,5.37
2022-11-06T16:23:59.826Z,6.90
2022-11-06T16:26:32.733Z,5.80
2022-11-06T16:29:00.963Z,7.73
2022-11-06T16:31:29.214Z,6.77
2022-11-06T16:34:00.301Z,5.67
2022-11-06T16:36:28.361Z,11.93
2022-11-06T16:39:02.300Z,6.85
2022-11-06T16:41:58.171Z,8.07
2022-11-06T16:44:32.002Z,6.60
2022-11-06T16:47:05.210Z,8.20
2022-11-06T16:49:35.971Z,9.37
2022-11-06T16:52:16.071Z,10.27
2022-11-06T16:54:50.930Z,7.80
2022-11-06T16:57:19.822Z,8.63
2022-11-06T16:59:55.017Z,8.43
2022-11-06T17:02:22.943Z,10.10
2022-11-06T17:04:50.237Z,11.23
2022-11-06T17:07:19.873Z,7.30
2022-11-06T17:09:46.888Z,14.23
2022-11-06T17:12:13.901Z,14.23
2022-11-06T17:14:44.511Z,7.40
2022-11-06T17:17:25.707Z,9.07
2022-11-06T17:19:53.012Z,8.82
2022-11-06T17:22:20.023Z,7.70
2022-11-06T17:24:47.058Z,7.60
2022-11-06T17:27:14.081Z,7.90
2022-11-06T17:29:41.049Z,7.20
2022-11-06T17:32:08.051Z,7.70
2022-11-06T17:34:35.093Z,9.97
2022-11-06T17:37:02.127Z,9.07
2022-11-06T17:39:29.084Z,9.87
2022-11-06T17:41:56.111Z,9.00
2022-11-06T17:44:23.091Z,7.93
2022-11-06T17:46:50.115Z,7.87
2022-11-06T17:49:18.680Z,6.50
2022-11-06T17:51:59.976Z,9.27
2022-11-06T17:54:28.711Z,7.80
2022-11-06T17:56:56.852Z,7.37
2022-11-06T17:59:24.047Z,6.80
2022-11-06T18:01:51.642Z,7.67
2022-11-06T18:04:19.385Z,6.77
2022-11-06T18:06:47.109Z,8.17
2022-11-06T18:09:14.700Z,7.27
2022-11-06T18:11:42.693Z,7.10
2022-11-06T18:14:10.240Z,7.33
2022-11-06T18:16:43.352Z,7.67
2022-11-06T18:19:11.704Z,7.37
2022-11-06T18:21:38.738Z,6.80
2022-11-06T18:24:06.146Z,7.47
2022-11-06T18:26:33.148Z,7.40
2022-11-06T18:29:00.120Z,9.40
2022-11-06T18:31:27.698Z,8.37
2022-11-06T18:33:54.709Z,12.10
2022-11-06T18:36:21.740Z,10.83
2022-11-06T18:38:48.728Z,9.20
2022-11-06T18:41:16.958Z,8.65
2022-11-06T18:43:43.964Z,8.13
2022-11-06T18:46:12.208Z,8.23
2022-11-06T18:48:39.305Z,7.93
2022-11-06T18:51:10.300Z,8.60
2022-11-06T18:53:37.904Z,6.30
2022-11-06T18:56:05.127Z,4.67
2022-11-06T18:58:32.159Z,3.73
2022-11-06T19:01:02.093Z,15.80
2022-11-06T19:03:29.197Z,7.30
2022-11-06T19:05:56.195Z,5.47
2022-11-06T19:08:23.296Z,7.67
2022-11-06T19:10:50.247Z,14.00
2022-11-06T19:13:17.941Z,16.67
2022-11-06T19:15:45.176Z,14.70
2022-11-06T19:18:13.391Z,14.13
2022-11-06T19:20:41.391Z,4.20
2022-11-06T19:23:08.841Z,5.07
2022-11-06T19:25:35.837Z,8.10
2022-11-06T19:28:03.185Z,9.87
2022-11-06T19:30:30.152Z,5.77
2022-11-06T19:32:57.154Z,4.07
2022-11-06T19:35:24.168Z,4.30
2022-11-06T19:37:51.999Z,3.90
2022-11-06T19:40:19.962Z,3.60
2022-11-06T19:42:47.044Z,4.00
2022-11-06T19:45:13.996Z,3.87
2022-11-06T19:47:40.977Z,3.27
2022-11-06T19:50:08.050Z,3.70
2022-11-06T19:52:42.552Z,3.63
2022-11-06T19:55:26.056Z,3.30
2022-11-06T19:57:55.019Z,4.27
2022-11-06T20:00:22.045Z,3.85
2022-11-06T20:02:50.613Z,3.33
2022-11-06T20:05:17.895Z,3.53
2022-11-06T20:07:44.906Z,3.07
2022-11-06T20:10:11.927Z,3.77
2022-11-06T20:12:38.981Z,3.40
2022-11-06T20:15:06.321Z,3.63
2022-11-06T20:17:33.311Z,3.50
2022-11-06T20:20:00.272Z,7.67
2022-11-06T20:22:27.321Z,7.60
2022-11-06T20:24:54.318Z,4.67
2022-11-06T20:27:21.305Z,3.43
2022-11-06T20:29:48.278Z,3.83
2022-11-06T20:32:19.035Z,3.50
2022-11-06T20:34:46.398Z,5.20
2022-11-06T20:37:13.579Z,4.93
2022-11-06T20:39:43.692Z,3.42
2022-11-06T20:42:10.818Z,4.80
2022-11-06T20:44:37.866Z,4.10
2022-11-06T20:47:04.852Z,3.20
2022-11-06T20:49:32.224Z,4.37
2022-11-06T20:52:15.397Z,3.40
2022-11-06T20:54:47.224Z,3.43
2022-11-06T20:57:15.452Z,3.57
2022-11-06T20:59:42.472Z,5.80
2022-11-06T21:02:11.164Z,3.00
2022-11-06T21:04:38.388Z,3.40
2022-11-06T21:07:05.463Z,3.73
2022-11-06T21:09:32.517Z,3.00
2022-11-06T21:11:59.545Z,2.93
2022-11-06T21:14:26.608Z,3.00
2022-11-06T21:16:54.085Z,2.70
2022-11-06T21:19:21.141Z,2.73
2022-11-06T21:21:48.144Z,3.17
2022-11-06T21:24:15.128Z,4.57
2022-11-06T21:26:42.134Z,2.60
2022-11-06T21:29:10.828Z,2.27
2022-11-06T21:31:48.393Z,3.53
2022-11-06T21:34:15.981Z,2.37
2022-11-06T21:36:43.316Z,2.10
2022-11-06T21:39:14.712Z,2.57
2022-11-06T21:41:41.830Z,2.07
2022-11-06T21:44:09.015Z,2.40
2022-11-06T21:46:38.111Z,3.00
2022-11-06T21:49:06.959Z,2.50
2022-11-06T21:51:33.950Z,2.40
2022-11-06T21:54:19.984Z,2.20
2022-11-06T21:56:50.229Z,2.67
2022-11-06T21:59:18.269Z,1.93
2022-11-06T22:01:45.643Z,2.60
2022-11-06T22:04:12.800Z,2.27
2022-11-06T22:06:43.373Z,1.90
2022-11-06T22:09:11.495Z,2.40
2022-11-06T22:11:40.129Z,2.10
2022-11-06T22:14:08.733Z,2.97
2022-11-06T22:16:37.142Z,2.13
2022-11-06T22:19:06.588Z,1.93
2022-11-06T22:21:33.634Z,1.73
2022-11-06T22:24:00.712Z,2.87
2022-11-06T22:26:29.730Z,2.10
2022-11-06T22:29:00.553Z,2.10
2022-11-06T22:31:27.846Z,1.70
2022-11-06T22:33:55.036Z,1.83
2022-11-06T22:36:22.852Z,2.97
2022-11-06T22:38:50.286Z,1.87
2022-11-06T22:41:18.378Z,1.80
2022-11-06T22:43:45.548Z,2.27
2022-11-06T22:46:13.996Z,2.37
2022-11-06T22:48:41.121Z,1.80
2022-11-06T22:51:08.945Z,2.30
2022-11-06T22:53:36.469Z,3.10
2022-11-06T22:56:03.891Z,3.07
2022-11-06T22:58:31.286Z,2.13
2022-11-06T23:00:59.033Z,1.90
2022-11-06T23:03:28.424Z,2.87
2022-11-06T23:05:59.666Z,1.70
2022-11-06T23:08:27.420Z,2.07
2022-11-06T23:10:55.277Z,2.00
2022-11-06T23:13:22.725Z,2.10
2022-11-06T23:15:50.011Z,2.10
2022-11-06T23:18:17.098Z,1.67
2022-11-06T23:20:44.080Z,4.10
2022-11-06T23:23:11.352Z,1.90
2022-11-06T23:25:38.454Z,1.67
2022-11-06T23:28:05.547Z,2.10
2022-11-06T23:30:32.806Z,1.87
2022-11-06T23:32:59.818Z,3.43
2022-11-06T23:35:32.374Z,3.47
2022-11-06T23:37:59.976Z,1.60
2022-11-06T23:40:27.057Z,2.67
2022-11-06T23:42:57.541Z,2.13
2022-11-06T23:45:43.453Z,1.97
2022-11-06T23:48:13.868Z,1.93
2022-11-06T23:50:41.396Z,2.97
2022-11-06T23:53:08.401Z,1.70
2022-11-06T23:55:35.405Z,3.47
2022-11-06T23:58:02.401Z,1.63
